sensor_id;sensor_type;location;lat;lon;timestamp;temperature;humidity
75357;HTU21D;63946;51.986;5.930;2024-03-29T05:51:28;8.60;71.58
75357;HTU21D;63946;51.986;5.930;2024-03-29T05:54:03;8.60;71.83
75357;HTU21D;63946;51.986;5.930;2024-03-29T05:56:32;8.62;71.90
75357;HTU21D;63946;51.986;5.930;2024-03-29T05:59:01;8.62;72.04
75357;HTU21D;63946;51.986;5.930;2024-03-29T06:01:33;8.64;72.08
75357;HTU21D;63946;51.986;5.930;2024-03-29T06:04:05;8.67;72.13
75357;HTU21D;63946;51.986;5.930;2024-03-29T06:06:35;8.67;72.32
75357;HTU21D;63946;51.986;5.930;2024-03-29T06:09:01;8.67;72.44
75357;HTU21D;63946;51.986;5.930;2024-03-29T06:11:27;8.66;72.60
75357;HTU21D;63946;51.986;5.930;2024-03-29T06:13:53;8.65;72.76
75357;HTU21D;63946;51.986;5.930;2024-03-29T06:16:35;8.70;72.65
75357;HTU21D;63946;51.986;5.930;2024-03-29T06:19:16;8.71;72.68
75357;HTU21D;63946;51.986;5.930;2024-03-29T06:21:42;8.68;72.92
75357;HTU21D;63946;51.986;5.930;2024-03-29T06:24:10;8.71;73.04
75357;HTU21D;63946;51.986;5.930;2024-03-29T06:26:48;8.77;72.93
75357;HTU21D;63946;51.986;5.930;2024-03-29T06:29:14;8.77;72.99
75357;HTU21D;63946;51.986;5.930;2024-03-29T06:31:41;8.77;73.03
75357;HTU21D;63946;51.986;5.930;2024-03-29T06:34:08;8.78;73.15
75357;HTU21D;63946;51.986;5.930;2024-03-29T06:36:34;8.75;73.38
75357;HTU21D;63946;51.986;5.930;2024-03-29T06:39:03;8.77;73.55
75357;HTU21D;63946;51.986;5.930;2024-03-29T06:41:30;8.81;73.38
75357;HTU21D;63946;51.986;5.930;2024-03-29T06:43:58;8.82;73.30
75357;HTU21D;63946;51.986;5.930;2024-03-29T06:46:25;8.87;73.28
75357;HTU21D;63946;51.986;5.930;2024-03-29T06:48:51;8.86;73.32
75357;HTU21D;63946;51.986;5.930;2024-03-29T06:51:17;8.89;73.25
75357;HTU21D;63946;51.986;5.930;2024-03-29T06:53:46;8.86;73.48
75357;HTU21D;63946;51.986;5.930;2024-03-29T06:56:13;8.87;73.43
75357;HTU21D;63946;51.986;5.930;2024-03-29T06:58:39;8.89;73.33
75357;HTU21D;63946;51.986;5.930;2024-03-29T07:01:05;8.89;73.37
75357;HTU21D;63946;51.986;5.930;2024-03-29T07:03:34;8.88;73.57
75357;HTU21D;63946;51.986;5.930;2024-03-29T07:06:00;8.89;73.54
75357;HTU21D;63946;51.986;5.930;2024-03-29T07:08:34;8.90;73.51
75357;HTU21D;63946;51.986;5.930;2024-03-29T07:11:01;8.93;73.38
75357;HTU21D;63946;51.986;5.930;2024-03-29T07:13:29;8.96;73.41
75357;HTU21D;63946;51.986;5.930;2024-03-29T07:15:56;9.01;73.33
75357;HTU21D;63946;51.986;5.930;2024-03-29T07:18:22;9.00;73.42
75357;HTU21D;63946;51.986;5.930;2024-03-29T07:20:49;9.01;73.46
75357;HTU21D;63946;51.986;5.930;2024-03-29T07:23:15;9.00;73.70
75357;HTU21D;63946;51.986;5.930;2024-03-29T07:25:44;9.02;73.67
75357;HTU21D;63946;51.986;5.930;2024-03-29T07:28:12;9.02;73.63
75357;HTU21D;63946;51.986;5.930;2024-03-29T07:30:38;9.02;73.73
75357;HTU21D;63946;51.986;5.930;2024-03-29T07:33:04;9.03;73.77
75357;HTU21D;63946;51.986;5.930;2024-03-29T07:35:31;9.07;73.81
75357;HTU21D;63946;51.986;5.930;2024-03-29T07:37:57;9.16;73.58
75357;HTU21D;63946;51.986;5.930;2024-03-29T07:40:23;9.20;73.47
75357;HTU21D;63946;51.986;5.930;2024-03-29T07:42:50;9.21;73.58
75357;HTU21D;63946;51.986;5.930;2024-03-29T07:45:16;9.22;73.77
75357;HTU21D;63946;51.986;5.930;2024-03-29T07:47:48;9.24;73.72
75357;HTU21D;63946;51.986;5.930;2024-03-29T07:50:15;9.27;73.66
75357;HTU21D;63946;51.986;5.930;2024-03-29T07:52:44;9.33;73.54
75357;HTU21D;63946;51.986;5.930;2024-03-29T07:55:11;9.34;73.57
75357;HTU21D;63946;51.986;5.930;2024-03-29T07:57:37;9.36;73.60
75357;HTU21D;63946;51.986;5.930;2024-03-29T08:00:07;9.38;73.57
75357;HTU21D;63946;51.986;5.930;2024-03-29T08:02:33;9.35;73.70
75357;HTU21D;63946;51.986;5.930;2024-03-29T08:05:06;9.33;73.95
75357;HTU21D;63946;51.986;5.930;2024-03-29T08:07:35;9.32;73.97
75357;HTU21D;63946;51.986;5.930;2024-03-29T08:10:01;9.37;73.88
75357;HTU21D;63946;51.986;5.930;2024-03-29T08:12:27;9.40;73.77
75357;HTU21D;63946;51.986;5.930;2024-03-29T08:14:53;9.40;73.67
75357;HTU21D;63946;51.986;5.930;2024-03-29T08:17:20;9.41;73.78
75357;HTU21D;63946;51.986;5.930;2024-03-29T08:19:46;9.40;73.84
75357;HTU21D;63946;51.986;5.930;2024-03-29T08:22:16;9.41;73.78
75357;HTU21D;63946;51.986;5.930;2024-03-29T08:24:42;9.33;73.92
75357;HTU21D;63946;51.986;5.930;2024-03-29T08:27:11;9.29;74.12
75357;HTU21D;63946;51.986;5.930;2024-03-29T08:29:37;9.29;74.18
75357;HTU21D;63946;51.986;5.930;2024-03-29T08:32:04;9.25;74.26
75357;HTU21D;63946;51.986;5.930;2024-03-29T08:34:30;9.24;74.28
75357;HTU21D;63946;51.986;5.930;2024-03-29T08:36:56;9.24;74.30
75357;HTU21D;63946;51.986;5.930;2024-03-29T08:39:25;9.29;74.23
75357;HTU21D;63946;51.986;5.930;2024-03-29T08:41:54;9.36;74.15
75357;HTU21D;63946;51.986;5.930;2024-03-29T08:44:23;9.49;74.01
75357;HTU21D;63946;51.986;5.930;2024-03-29T08:46:51;9.59;73.83
75357;HTU21D;63946;51.986;5.930;2024-03-29T08:49:17;9.67;73.66
75357;HTU21D;63946;51.986;5.930;2024-03-29T08:51:43;9.74;73.51
75357;HTU21D;63946;51.986;5.930;2024-03-29T08:54:09;9.83;73.32
75357;HTU21D;63946;51.986;5.930;2024-03-29T08:56:38;9.94;73.06
75357;HTU21D;63946;51.986;5.930;2024-03-29T08:59:04;10.05;72.90
75357;HTU21D;63946;51.986;5.930;2024-03-29T09:01:31;10.09;72.87
75357;HTU21D;63946;51.986;5.930;2024-03-29T09:03:58;10.15;72.86
75357;HTU21D;63946;51.986;5.930;2024-03-29T09:06:24;10.23;72.69
75357;HTU21D;63946;51.986;5.930;2024-03-29T09:08:53;10.33;72.58
75357;HTU21D;63946;51.986;5.930;2024-03-29T09:11:19;10.37;72.42
75357;HTU21D;63946;51.986;5.930;2024-03-29T09:13:45;10.39;72.21
75357;HTU21D;63946;51.986;5.930;2024-03-29T09:16:11;10.41;72.28
75357;HTU21D;63946;51.986;5.930;2024-03-29T09:18:37;10.52;72.15
75357;HTU21D;63946;51.986;5.930;2024-03-29T09:21:03;10.57;71.91
75357;HTU21D;63946;51.986;5.930;2024-03-29T09:23:29;10.64;71.81
75357;HTU21D;63946;51.986;5.930;2024-03-29T09:25:56;10.72;71.63
75357;HTU21D;63946;51.986;5.930;2024-03-29T09:28:23;10.73;71.56
75357;HTU21D;63946;51.986;5.930;2024-03-29T09:30:49;10.82;71.41
75357;HTU21D;63946;51.986;5.930;2024-03-29T09:33:16;10.98;71.09
75357;HTU21D;63946;51.986;5.930;2024-03-29T09:35:42;11.19;70.79
75357;HTU21D;63946;51.986;5.930;2024-03-29T09:38:08;11.33;70.32
75357;HTU21D;63946;51.986;5.930;2024-03-29T09:40:34;11.53;69.90
75357;HTU21D;63946;51.986;5.930;2024-03-29T09:43:01;11.66;69.52
75357;HTU21D;63946;51.986;5.930;2024-03-29T09:45:33;11.74;69.02
75357;HTU21D;63946;51.986;5.930;2024-03-29T09:48:09;11.87;68.90
75357;HTU21D;63946;51.986;5.930;2024-03-29T09:50:37;11.98;68.71
75357;HTU21D;63946;51.986;5.930;2024-03-29T09:53:04;12.15;68.57
75357;HTU21D;63946;51.986;5.930;2024-03-29T09:55:31;12.34;68.15
75357;HTU21D;63946;51.986;5.930;2024-03-29T09:57:57;12.29;68.18
75357;HTU21D;63946;51.986;5.930;2024-03-29T10:00:24;12.20;68.39
75357;HTU21D;63946;51.986;5.930;2024-03-29T10:02:53;12.21;68.51
75357;HTU21D;63946;51.986;5.930;2024-03-29T10:05:21;12.26;68.29
75357;HTU21D;63946;51.986;5.930;2024-03-29T10:07:47;12.14;68.17
75357;HTU21D;63946;51.986;5.930;2024-03-29T10:10:13;12.15;68.13
75357;HTU21D;63946;51.986;5.930;2024-03-29T10:12:40;12.13;68.20
75357;HTU21D;63946;51.986;5.930;2024-03-29T10:15:06;12.13;68.06
75357;HTU21D;63946;51.986;5.930;2024-03-29T10:17:34;12.16;67.68
75357;HTU21D;63946;51.986;5.930;2024-03-29T10:20:01;12.29;67.59
75357;HTU21D;63946;51.986;5.930;2024-03-29T10:22:28;12.43;67.34
75357;HTU21D;63946;51.986;5.930;2024-03-29T10:24:54;12.57;67.06
75357;HTU21D;63946;51.986;5.930;2024-03-29T10:27:20;12.61;66.81
75357;HTU21D;63946;51.986;5.930;2024-03-29T10:29:46;12.70;66.62
75357;HTU21D;63946;51.986;5.930;2024-03-29T10:32:12;12.71;66.07
75357;HTU21D;63946;51.986;5.930;2024-03-29T10:34:38;12.74;66.17
75357;HTU21D;63946;51.986;5.930;2024-03-29T10:37:05;12.84;65.93
75357;HTU21D;63946;51.986;5.930;2024-03-29T10:39:31;12.85;65.85
75357;HTU21D;63946;51.986;5.930;2024-03-29T10:41:57;12.91;65.87
75357;HTU21D;63946;51.986;5.930;2024-03-29T10:44:25;13.05;65.82
75357;HTU21D;63946;51.986;5.930;2024-03-29T10:46:53;13.46;65.42
75357;HTU21D;63946;51.986;5.930;2024-03-29T10:49:21;13.89;64.34
75357;HTU21D;63946;51.986;5.930;2024-03-29T10:51:49;13.91;63.62
75357;HTU21D;63946;51.986;5.930;2024-03-29T10:54:16;13.78;63.73
75357;HTU21D;63946;51.986;5.930;2024-03-29T10:56:47;13.81;64.10
75357;HTU21D;63946;51.986;5.930;2024-03-29T10:59:41;13.94;63.63
75357;HTU21D;63946;51.986;5.930;2024-03-29T11:02:26;13.92;63.73
75357;HTU21D;63946;51.986;5.930;2024-03-29T11:04:58;13.86;63.56
75357;HTU21D;63946;51.986;5.930;2024-03-29T11:07:26;13.78;63.63
75357;HTU21D;63946;51.986;5.930;2024-03-29T11:09:56;13.81;63.41
75357;HTU21D;63946;51.986;5.930;2024-03-29T11:12:25;13.85;63.10
75357;HTU21D;63946;51.986;5.930;2024-03-29T11:15:01;13.91;62.82
75357;HTU21D;63946;51.986;5.930;2024-03-29T11:17:29;14.00;63.08
75357;HTU21D;63946;51.986;5.930;2024-03-29T11:19:58;14.14;62.52
75357;HTU21D;63946;51.986;5.930;2024-03-29T11:22:26;14.13;62.41
75357;HTU21D;63946;51.986;5.930;2024-03-29T11:24:53;14.23;62.22
75357;HTU21D;63946;51.986;5.930;2024-03-29T11:27:23;14.40;61.96
75357;HTU21D;63946;51.986;5.930;2024-03-29T11:29:49;14.48;61.60
75357;HTU21D;63946;51.986;5.930;2024-03-29T11:32:15;14.44;61.65
75357;HTU21D;63946;51.986;5.930;2024-03-29T11:34:44;14.41;61.76
75357;HTU21D;63946;51.986;5.930;2024-03-29T11:37:12;14.47;61.18
75357;HTU21D;63946;51.986;5.930;2024-03-29T11:39:38;14.41;61.15
75357;HTU21D;63946;51.986;5.930;2024-03-29T11:42:04;14.45;61.14
75357;HTU21D;63946;51.986;5.930;2024-03-29T11:44:30;14.57;61.09
75357;HTU21D;63946;51.986;5.930;2024-03-29T11:46:58;14.74;60.70
75357;HTU21D;63946;51.986;5.930;2024-03-29T11:49:27;14.86;60.54
75357;HTU21D;63946;51.986;5.930;2024-03-29T11:52:04;14.84;60.48
75357;HTU21D;63946;51.986;5.930;2024-03-29T11:54:38;14.81;60.25
75357;HTU21D;63946;51.986;5.930;2024-03-29T11:57:05;14.83;59.97
75357;HTU21D;63946;51.986;5.930;2024-03-29T11:59:31;14.81;59.92
75357;HTU21D;63946;51.986;5.930;2024-03-29T12:02:00;14.87;59.82
75357;HTU21D;63946;51.986;5.930;2024-03-29T12:04:28;15.10;59.13
75357;HTU21D;63946;51.986;5.930;2024-03-29T12:06:55;15.13;58.57
75357;HTU21D;63946;51.986;5.930;2024-03-29T12:09:21;15.13;58.51
75357;HTU21D;63946;51.986;5.930;2024-03-29T12:11:48;15.22;58.25
75357;HTU21D;63946;51.986;5.930;2024-03-29T12:14:16;15.26;57.71
75357;HTU21D;63946;51.986;5.930;2024-03-29T12:16:45;15.27;57.48
75357;HTU21D;63946;51.986;5.930;2024-03-29T12:19:24;15.24;56.91
75357;HTU21D;63946;51.986;5.930;2024-03-29T12:21:51;15.23;56.94
75357;HTU21D;63946;51.986;5.930;2024-03-29T12:24:17;15.30;57.16
75357;HTU21D;63946;51.986;5.930;2024-03-29T12:26:43;15.39;57.05
75357;HTU21D;63946;51.986;5.930;2024-03-29T12:29:10;15.37;57.00
75357;HTU21D;63946;51.986;5.930;2024-03-29T12:31:36;15.51;56.80
75357;HTU21D;63946;51.986;5.930;2024-03-29T12:34:02;15.60;56.56
75357;HTU21D;63946;51.986;5.930;2024-03-29T12:36:28;15.58;56.50
75357;HTU21D;63946;51.986;5.930;2024-03-29T12:38:58;15.73;56.09
75357;HTU21D;63946;51.986;5.930;2024-03-29T12:41:24;15.93;55.76
75357;HTU21D;63946;51.986;5.930;2024-03-29T12:43:51;16.13;55.10
75357;HTU21D;63946;51.986;5.930;2024-03-29T12:46:18;16.10;55.14
75357;HTU21D;63946;51.986;5.930;2024-03-29T12:48:44;16.03;54.78
75357;HTU21D;63946;51.986;5.930;2024-03-29T12:51:13;15.88;55.07
75357;HTU21D;63946;51.986;5.930;2024-03-29T12:53:39;15.69;55.42
75357;HTU21D;63946;51.986;5.930;2024-03-29T12:56:05;15.55;55.81
75357;HTU21D;63946;51.986;5.930;2024-03-29T12:58:32;15.52;55.94
75357;HTU21D;63946;51.986;5.930;2024-03-29T13:00:58;15.66;56.00
75357;HTU21D;63946;51.986;5.930;2024-03-29T13:03:24;15.75;55.60
75357;HTU21D;63946;51.986;5.930;2024-03-29T13:05:50;15.76;55.24
75357;HTU21D;63946;51.986;5.930;2024-03-29T13:08:16;15.86;54.69
75357;HTU21D;63946;51.986;5.930;2024-03-29T13:10:43;15.89;54.42
75357;HTU21D;63946;51.986;5.930;2024-03-29T13:13:10;15.92;54.43
75357;HTU21D;63946;51.986;5.930;2024-03-29T13:15:38;15.96;54.38
75357;HTU21D;63946;51.986;5.930;2024-03-29T13:18:06;15.95;54.30
75357;HTU21D;63946;51.986;5.930;2024-03-29T13:20:35;16.07;53.82
75357;HTU21D;63946;51.986;5.930;2024-03-29T13:23:01;16.22;52.93
75357;HTU21D;63946;51.986;5.930;2024-03-29T13:25:27;16.22;52.87
75357;HTU21D;63946;51.986;5.930;2024-03-29T13:27:54;16.20;52.94
75357;HTU21D;63946;51.986;5.930;2024-03-29T13:30:23;16.20;52.91
75357;HTU21D;63946;51.986;5.930;2024-03-29T13:32:50;16.33;53.18
75357;HTU21D;63946;51.986;5.930;2024-03-29T13:35:16;16.39;52.42
75357;HTU21D;63946;51.986;5.930;2024-03-29T13:37:43;16.33;52.85
75357;HTU21D;63946;51.986;5.930;2024-03-29T13:40:10;16.29;52.56
75357;HTU21D;63946;51.986;5.930;2024-03-29T13:42:37;16.21;52.33
75357;HTU21D;63946;51.986;5.930;2024-03-29T13:45:07;16.16;52.33
75357;HTU21D;63946;51.986;5.930;2024-03-29T13:47:38;16.15;52.60
75357;HTU21D;63946;51.986;5.930;2024-03-29T13:50:05;16.19;52.69
75357;HTU21D;63946;51.986;5.930;2024-03-29T13:52:31;16.44;52.01
75357;HTU21D;63946;51.986;5.930;2024-03-29T13:54:58;16.57;51.88
75357;HTU21D;63946;51.986;5.930;2024-03-29T13:57:24;16.66;51.57
75357;HTU21D;63946;51.986;5.930;2024-03-29T13:59:50;16.62;51.33
75357;HTU21D;63946;51.986;5.930;2024-03-29T14:02:18;16.39;51.24
75357;HTU21D;63946;51.986;5.930;2024-03-29T14:04:46;16.19;51.71
75357;HTU21D;63946;51.986;5.930;2024-03-29T14:07:14;16.14;51.90
75357;HTU21D;63946;51.986;5.930;2024-03-29T14:09:41;16.18;51.77
75357;HTU21D;63946;51.986;5.930;2024-03-29T14:12:07;16.26;51.81
75357;HTU21D;63946;51.986;5.930;2024-03-29T14:14:34;16.26;51.97
75357;HTU21D;63946;51.986;5.930;2024-03-29T14:17:03;16.19;51.84
75357;HTU21D;63946;51.986;5.930;2024-03-29T14:19:30;16.18;51.73
75357;HTU21D;63946;51.986;5.930;2024-03-29T14:21:56;16.17;51.85
75357;HTU21D;63946;51.986;5.930;2024-03-29T14:24:23;16.16;51.54
75357;HTU21D;63946;51.986;5.930;2024-03-29T14:26:50;16.18;51.60
75357;HTU21D;63946;51.986;5.930;2024-03-29T14:29:20;16.19;51.46
75357;HTU21D;63946;51.986;5.930;2024-03-29T14:31:48;16.21;50.98
75357;HTU21D;63946;51.986;5.930;2024-03-29T14:34:15;16.21;50.97
75357;HTU21D;63946;51.986;5.930;2024-03-29T14:36:42;16.19;50.47
75357;HTU21D;63946;51.986;5.930;2024-03-29T14:39:08;16.17;50.25
75357;HTU21D;63946;51.986;5.930;2024-03-29T14:41:41;16.17;50.43
75357;HTU21D;63946;51.986;5.930;2024-03-29T14:44:10;16.24;50.32
75357;HTU21D;63946;51.986;5.930;2024-03-29T14:46:49;16.22;50.50
75357;HTU21D;63946;51.986;5.930;2024-03-29T14:49:15;16.20;50.42
75357;HTU21D;63946;51.986;5.930;2024-03-29T14:51:41;16.19;50.64
75357;HTU21D;63946;51.986;5.930;2024-03-29T14:54:07;16.30;50.75
75357;HTU21D;63946;51.986;5.930;2024-03-29T14:56:36;16.31;50.28
75357;HTU21D;63946;51.986;5.930;2024-03-29T14:59:16;16.34;50.18
75357;HTU21D;63946;51.986;5.930;2024-03-29T15:01:48;16.48;49.78
75357;HTU21D;63946;51.986;5.930;2024-03-29T15:04:20;16.51;49.47
75357;HTU21D;63946;51.986;5.930;2024-03-29T15:07:00;16.61;50.06
75357;HTU21D;63946;51.986;5.930;2024-03-29T15:09:30;16.67;49.98
75357;HTU21D;63946;51.986;5.930;2024-03-29T15:11:59;16.71;49.50
75357;HTU21D;63946;51.986;5.930;2024-03-29T15:14:28;16.73;49.67
75357;HTU21D;63946;51.986;5.930;2024-03-29T15:16:54;16.76;49.44
75357;HTU21D;63946;51.986;5.930;2024-03-29T15:19:26;16.85;48.98
75357;HTU21D;63946;51.986;5.930;2024-03-29T15:21:55;16.87;49.05
75357;HTU21D;63946;51.986;5.930;2024-03-29T15:24:23;16.96;49.30
75357;HTU21D;63946;51.986;5.930;2024-03-29T15:26:50;16.98;49.39
75357;HTU21D;63946;51.986;5.930;2024-03-29T15:29:21;17.02;49.24
75357;HTU21D;63946;51.986;5.930;2024-03-29T15:31:49;17.04;49.35
75357;HTU21D;63946;51.986;5.930;2024-03-29T15:34:19;16.92;49.02
75357;HTU21D;63946;51.986;5.930;2024-03-29T15:36:45;16.75;49.44
75357;HTU21D;63946;51.986;5.930;2024-03-29T15:39:13;16.49;49.72
75357;HTU21D;63946;51.986;5.930;2024-03-29T15:41:43;16.31;49.89
75357;HTU21D;63946;51.986;5.930;2024-03-29T15:44:21;16.12;50.26
75357;HTU21D;63946;51.986;5.930;2024-03-29T15:46:50;15.98;50.59
75357;HTU21D;63946;51.986;5.930;2024-03-29T15:49:17;15.95;50.69
75357;HTU21D;63946;51.986;5.930;2024-03-29T15:51:43;15.99;50.62
75357;HTU21D;63946;51.986;5.930;2024-03-29T15:54:12;15.98;50.79
75357;HTU21D;63946;51.986;5.930;2024-03-29T15:56:47;15.91;51.04
75357;HTU21D;63946;51.986;5.930;2024-03-29T15:59:19;15.84;51.39
75357;HTU21D;63946;51.986;5.930;2024-03-29T16:01:48;15.76;51.66
75357;HTU21D;63946;51.986;5.930;2024-03-29T16:04:15;15.78;51.94
75357;HTU21D;63946;51.986;5.930;2024-03-29T16:06:41;15.74;52.24
75357;HTU21D;63946;51.986;5.930;2024-03-29T16:09:08;15.69;52.49
75357;HTU21D;63946;51.986;5.930;2024-03-29T16:11:36;15.66;52.48
75357;HTU21D;63946;51.986;5.930;2024-03-29T16:14:05;15.66;52.50
75357;HTU21D;63946;51.986;5.930;2024-03-29T16:16:32;15.62;52.49
75357;HTU21D;63946;51.986;5.930;2024-03-29T16:18:58;15.59;52.39
75357;HTU21D;63946;51.986;5.930;2024-03-29T16:21:25;15.56;52.71
75357;HTU21D;63946;51.986;5.930;2024-03-29T16:23:55;15.55;52.97
75357;HTU21D;63946;51.986;5.930;2024-03-29T16:26:21;15.55;53.04
75357;HTU21D;63946;51.986;5.930;2024-03-29T16:28:51;15.49;53.10
75357;HTU21D;63946;51.986;5.930;2024-03-29T16:31:17;15.45;53.38
75357;HTU21D;63946;51.986;5.930;2024-03-29T16:33:44;15.44;53.52
75357;HTU21D;63946;51.986;5.930;2024-03-29T16:36:14;15.48;53.49
75357;HTU21D;63946;51.986;5.930;2024-03-29T16:38:40;15.51;53.55
75357;HTU21D;63946;51.986;5.930;2024-03-29T16:41:07;15.49;53.62
75357;HTU21D;63946;51.986;5.930;2024-03-29T16:43:33;15.45;53.73
75357;HTU21D;63946;51.986;5.930;2024-03-29T16:46:00;15.42;53.78
75357;HTU21D;63946;51.986;5.930;2024-03-29T16:48:29;15.43;53.82
75357;HTU21D;63946;51.986;5.930;2024-03-29T16:50:56;15.43;53.69
75357;HTU21D;63946;51.986;5.930;2024-03-29T16:53:26;15.41;53.69
75357;HTU21D;63946;51.986;5.930;2024-03-29T16:55:56;15.36;53.65
75357;HTU21D;63946;51.986;5.930;2024-03-29T16:58:23;15.28;53.85
75357;HTU21D;63946;51.986;5.930;2024-03-29T17:00:52;15.27;53.80
75357;HTU21D;63946;51.986;5.930;2024-03-29T17:03:19;15.26;53.73
75357;HTU21D;63946;51.986;5.930;2024-03-29T17:05:48;15.21;53.84
75357;HTU21D;63946;51.986;5.930;2024-03-29T17:08:14;15.16;54.04
75357;HTU21D;63946;51.986;5.930;2024-03-29T17:10:43;15.11;54.35
75357;HTU21D;63946;51.986;5.930;2024-03-29T17:13:12;15.04;54.51
75357;HTU21D;63946;51.986;5.930;2024-03-29T17:15:39;15.01;54.74
75357;HTU21D;63946;51.986;5.930;2024-03-29T17:18:05;14.98;54.94
75357;HTU21D;63946;51.986;5.930;2024-03-29T17:20:31;14.95;54.97
75357;HTU21D;63946;51.986;5.930;2024-03-29T17:22:58;14.93;54.99
75357;HTU21D;63946;51.986;5.930;2024-03-29T17:25:24;14.91;55.13
75357;HTU21D;63946;51.986;5.930;2024-03-29T17:27:50;14.86;55.23
75357;HTU21D;63946;51.986;5.930;2024-03-29T17:30:17;14.84;55.31
75357;HTU21D;63946;51.986;5.930;2024-03-29T17:32:46;14.75;55.35
75357;HTU21D;63946;51.986;5.930;2024-03-29T17:35:15;14.72;55.55
75357;HTU21D;63946;51.986;5.930;2024-03-29T17:37:44;14.66;55.72
75357;HTU21D;63946;51.986;5.930;2024-03-29T17:40:16;14.63;55.89
75357;HTU21D;63946;51.986;5.930;2024-03-29T17:42:55;14.56;56.00
75357;HTU21D;63946;51.986;5.930;2024-03-29T17:45:37;14.54;55.97
75357;HTU21D;63946;51.986;5.930;2024-03-29T17:48:07;14.51;55.95
75357;HTU21D;63946;51.986;5.930;2024-03-29T17:50:36;14.47;55.98
75357;HTU21D;63946;51.986;5.930;2024-03-29T17:53:03;14.42;56.19
75357;HTU21D;63946;51.986;5.930;2024-03-29T17:55:37;14.41;56.14
75357;HTU21D;63946;51.986;5.930;2024-03-29T17:58:03;14.38;56.16
75357;HTU21D;63946;51.986;5.930;2024-03-29T18:00:53;14.33;56.20
75357;HTU21D;63946;51.986;5.930;2024-03-29T18:03:28;14.26;56.39
75357;HTU21D;63946;51.986;5.930;2024-03-29T18:06:07;14.26;56.36
75357;HTU21D;63946;51.986;5.930;2024-03-29T18:08:56;14.23;56.48
75357;HTU21D;63946;51.986;5.930;2024-03-29T18:11:25;14.17;56.61
75357;HTU21D;63946;51.986;5.930;2024-03-29T18:13:52;14.17;56.64
75357;HTU21D;63946;51.986;5.930;2024-03-29T18:16:19;14.17;56.64
75357;HTU21D;63946;51.986;5.930;2024-03-29T18:18:51;0.00;56.72
75357;HTU21D;63946;51.986;5.930;2024-03-29T18:21:18;14.17;56.84
75357;HTU21D;63946;51.986;5.930;2024-03-29T18:23:47;14.14;56.93
75357;HTU21D;63946;51.986;5.930;2024-03-29T18:26:13;14.09;57.04
75357;HTU21D;63946;51.986;5.930;2024-03-29T18:28:42;14.06;57.14
75357;HTU21D;63946;51.986;5.930;2024-03-29T18:31:08;14.06;57.18
75357;HTU21D;63946;51.986;5.930;2024-03-29T18:33:47;14.01;57.16
75357;HTU21D;63946;51.986;5.930;2024-03-29T18:36:18;14.00;57.12
75357;HTU21D;63946;51.986;5.930;2024-03-29T18:38:45;13.98;57.37
75357;HTU21D;63946;51.986;5.930;2024-03-29T18:41:11;13.95;57.51
75357;HTU21D;63946;51.986;5.930;2024-03-29T18:43:42;13.95;57.42
75357;HTU21D;63946;51.986;5.930;2024-03-29T18:46:10;13.91;57.56
75357;HTU21D;63946;51.986;5.930;2024-03-29T18:48:36;13.86;57.67
75357;HTU21D;63946;51.986;5.930;2024-03-29T18:51:03;13.88;57.55
75357;HTU21D;63946;51.986;5.930;2024-03-29T18:53:35;13.88;57.52
75357;HTU21D;63946;51.986;5.930;2024-03-29T18:56:02;13.82;57.75
75357;HTU21D;63946;51.986;5.930;2024-03-29T18:58:29;13.80;57.71
75357;HTU21D;63946;51.986;5.930;2024-03-29T19:00:58;13.79;57.73
75357;HTU21D;63946;51.986;5.930;2024-03-29T19:03:27;13.78;57.80
75357;HTU21D;63946;51.986;5.930;2024-03-29T19:05:56;13.76;57.86
75357;HTU21D;63946;51.986;5.930;2024-03-29T19:08:28;13.74;57.88
75357;HTU21D;63946;51.986;5.930;2024-03-29T19:11:03;13.70;57.97
75357;HTU21D;63946;51.986;5.930;2024-03-29T19:13:30;13.66;58.13
75357;HTU21D;63946;51.986;5.930;2024-03-29T19:15:59;13.62;58.16
75357;HTU21D;63946;51.986;5.930;2024-03-29T19:18:25;13.60;58.14
75357;HTU21D;63946;51.986;5.930;2024-03-29T19:21:00;13.61;58.06
75357;HTU21D;63946;51.986;5.930;2024-03-29T19:23:26;13.63;57.92
75357;HTU21D;63946;51.986;5.930;2024-03-29T19:25:53;13.63;57.81
75357;HTU21D;63946;51.986;5.930;2024-03-29T19:28:20;13.64;57.83
75357;HTU21D;63946;51.986;5.930;2024-03-29T19:30:49;13.63;57.84
75357;HTU21D;63946;51.986;5.930;2024-03-29T19:33:18;13.63;57.87
75357;HTU21D;63946;51.986;5.930;2024-03-29T19:35:50;13.60;57.89
75357;HTU21D;63946;51.986;5.930;2024-03-29T19:38:17;13.58;58.03
75357;HTU21D;63946;51.986;5.930;2024-03-29T19:40:45;13.58;58.09
75357;HTU21D;63946;51.986;5.930;2024-03-29T19:43:12;13.56;58.13
75357;HTU21D;63946;51.986;5.930;2024-03-29T19:45:39;13.53;58.16
75357;HTU21D;63946;51.986;5.930;2024-03-29T19:48:07;13.52;58.35
75357;HTU21D;63946;51.986;5.930;2024-03-29T19:50:34;13.49;58.41
75357;HTU21D;63946;51.986;5.930;2024-03-29T19:53:00;13.50;58.32
75357;HTU21D;63946;51.986;5.930;2024-03-29T19:55:27;13.51;58.33
75357;HTU21D;63946;51.986;5.930;2024-03-29T19:57:53;13.49;58.35
75357;HTU21D;63946;51.986;5.930;2024-03-29T20:00:22;13.46;58.37
75357;HTU21D;63946;51.986;5.930;2024-03-29T20:02:51;13.44;58.43
75357;HTU21D;63946;51.986;5.930;2024-03-29T20:05:17;13.43;58.47
75357;HTU21D;63946;51.986;5.930;2024-03-29T20:07:46;13.39;58.45
75357;HTU21D;63946;51.986;5.930;2024-03-29T20:10:12;13.38;58.40
75357;HTU21D;63946;51.986;5.930;2024-03-29T20:12:39;13.38;58.24
75357;HTU21D;63946;51.986;5.930;2024-03-29T20:15:05;13.39;58.13
75357;HTU21D;63946;51.986;5.930;2024-03-29T20:17:32;13.39;58.17
75357;HTU21D;63946;51.986;5.930;2024-03-29T20:19:58;13.40;58.13
75357;HTU21D;63946;51.986;5.930;2024-03-29T20:22:31;13.41;58.13
75357;HTU21D;63946;51.986;5.930;2024-03-29T20:25:00;13.45;58.13
75357;HTU21D;63946;51.986;5.930;2024-03-29T20:27:27;13.43;58.34
75357;HTU21D;63946;51.986;5.930;2024-03-29T20:29:53;13.38;58.64
75357;HTU21D;63946;51.986;5.930;2024-03-29T20:32:25;13.33;59.19
75357;HTU21D;63946;51.986;5.930;2024-03-29T20:34:51;13.27;59.55
75357;HTU21D;63946;51.986;5.930;2024-03-29T20:37:18;13.25;59.93
75357;HTU21D;63946;51.986;5.930;2024-03-29T20:39:45;13.22;60.25
75357;HTU21D;63946;51.986;5.930;2024-03-29T20:42:13;13.21;60.79
75357;HTU21D;63946;51.986;5.930;2024-03-29T20:44:47;13.19;61.31
75357;HTU21D;63946;51.986;5.930;2024-03-29T20:47:14;13.15;61.87
75357;HTU21D;63946;51.986;5.930;2024-03-29T20:49:40;13.07;62.41
75357;HTU21D;63946;51.986;5.930;2024-03-29T20:52:07;13.06;62.72
75357;HTU21D;63946;51.986;5.930;2024-03-29T20:54:34;13.05;62.86
75357;HTU21D;63946;51.986;5.930;2024-03-29T20:57:03;13.06;62.94
75357;HTU21D;63946;51.986;5.930;2024-03-29T20:59:30;13.06;63.06
75357;HTU21D;63946;51.986;5.930;2024-03-29T21:01:59;13.07;63.31
75357;HTU21D;63946;51.986;5.930;2024-03-29T21:04:49;13.05;63.56
75357;HTU21D;63946;51.986;5.930;2024-03-29T21:07:36;13.03;63.61
75357;HTU21D;63946;51.986;5.930;2024-03-29T21:10:03;13.01;63.96
75357;HTU21D;63946;51.986;5.930;2024-03-29T21:12:34;13.01;64.03
75357;HTU21D;63946;51.986;5.930;2024-03-29T21:15:01;13.04;64.11
75357;HTU21D;63946;51.986;5.930;2024-03-29T21:17:30;13.04;64.30